Latest Weather Observations for Armament Jetty

IDW60901

Issued at 6:21 pm WST Sunday 10 May 2026 (issued every 10 minutes, with the page automatically refreshed every 10 minutes)

About weather observations | Map of Perth area stations | Latest observations for Perth area | Other Formats
Station Details ID: 009254 Name: ARMAMENT JETTY Lat: -32.18 Lon: 115.68 Height: 9.0 m
Data from the previous 72 hours. | See also: Recent months for locations in Western Australia
Date/Time
WST
Temp
°C
App
Temp
°C
Dew
Point
°C
Rel
Hum
%
Delta-T
°C
Wind Press
QNH
hPa
Press
MSL
hPa
Rain since
9am
mm
Dir  Spd
km/h
Gust
km/h
Spd
kts
Gust
kts
10/06:00pm - - - - - SW 9 11 5 6 - - -
10/05:30pm - - - - - SW 9 11 5 6 - - -
10/05:00pm - - - - - WSW 7 7 4 4 - - -
10/04:30pm - - - - - WNW 4 11 2 6 - - -
10/04:00pm - - - - - NNW 9 11 5 6 - - -
10/03:30pm - - - - - NNW 13 15 7 8 - - -
10/03:00pm - - - - - NNW 13 17 7 9 - - -
10/02:30pm - - - - - N 13 15 7 8 - - -
10/02:00pm - - - - - NNW 15 17 8 9 - - -
10/01:30pm - - - - - NNW 17 20 9 11 - - -
10/01:00pm - - - - - N 19 20 10 11 - - -
10/12:30pm - - - - - N 17 20 9 11 - - -
10/12:00pm - - - - - NNE 20 26 11 14 - - -
10/11:30am - - - - - NNE 22 26 12 14 - - -
10/11:00am - - - - - NNE 28 32 15 17 - - -
10/10:30am - - - - - NNE 30 32 16 17 - - -
10/10:00am - - - - - NNE 32 35 17 19 - - -
10/09:30am - - - - - NNE 33 37 18 20 - - -
10/09:00am - - - - - NNE 32 37 17 20 - - -
10/08:30am - - - - - NE 30 35 16 19 - - -
10/08:00am - - - - - NE 32 37 17 20 - - -
10/07:30am - - - - - NE 30 33 16 18 - - -
10/07:00am - - - - - NE 28 33 15 18 - - -
10/06:30am - - - - - NE 30 33 16 18 - - -
10/06:00am - - - - - NE 32 35 17 19 - - -
10/05:30am - - - - - NE 33 39 18 21 - - -
10/05:00am - - - - - NE 33 39 18 21 - - -
10/04:30am - - - - - NE 33 39 18 21 - - -
10/04:00am - - - - - NE 33 39 18 21 - - -
10/03:30am - - - - - NE 30 35 16 19 - - -
10/03:00am - - - - - NE 26 30 14 16 - - -
10/02:30am - - - - - ENE 26 30 14 16 - - -
10/02:00am - - - - - ENE 20 24 11 13 - - -
10/01:30am - - - - - ENE 20 24 11 13 - - -
10/01:00am - - - - - ENE 20 24 11 13 - - -
10/12:30am - - - - - ENE 24 28 13 15 - - -
10/12:00am - - - - - ENE 26 30 14 16 - - -
 
Date/Time
WST
Temp
°C
App
Temp
°C
Dew
Point
°C
Rel
Hum
%
Delta-T
°C
Wind Press
QNH
hPa
Press
MSL
hPa
Rain since
9am
mm
Dir  Spd
km/h
Gust
km/h
Spd
kts
Gust
kts
09/11:30pm - - - - - ENE 22 26 12 14 - - -
09/11:00pm - - - - - ENE 20 24 11 13 - - -
09/10:30pm - - - - - ENE 20 24 11 13 - - -
09/10:00pm - - - - - ENE 19 22 10 12 - - -
09/09:30pm - - - - - ENE 20 26 11 14 - - -
09/09:00pm - - - - - ENE 20 22 11 12 - - -
09/08:30pm - - - - - E 20 26 11 14 - - -
09/08:00pm - - - - - E 20 24 11 13 - - -
09/07:30pm - - - - - E 20 24 11 13 - - -
09/07:00pm - - - - - E 19 20 10 11 - - -
09/06:30pm - - - - - ESE 17 19 9 10 - - -
09/06:00pm - - - - - E 15 17 8 9 - - -
09/05:30pm - - - - - E 13 15 7 8 - - -
09/05:00pm - - - - - E 2 9 1 5 - - -
09/04:30pm - - - - - CALM 0 0 0 0 - - -
09/04:00pm - - - - - NNE 6 7 3 4 - - -
09/03:30pm - - - - - NE 9 11 5 6 - - -
09/03:00pm - - - - - E 13 17 7 9 - - -
09/02:30pm - - - - - ENE 17 22 9 12 - - -
09/02:00pm - - - - - ENE 17 22 9 12 - - -
09/01:30pm - - - - - NE 17 22 9 12 - - -
09/01:00pm - - - - - NE 20 26 11 14 - - -
09/12:30pm - - - - - NE 20 26 11 14 - - -
09/12:00pm - - - - - NE 24 28 13 15 - - -
09/11:30am - - - - - NE 26 30 14 16 - - -
09/11:00am - - - - - NE 26 30 14 16 - - -
09/10:30am - - - - - NE 30 35 16 19 - - -
09/10:00am - - - - - NE 32 35 17 19 - - -
09/09:30am - - - - - NE 33 37 18 20 - - -
09/09:00am - - - - - NE 32 35 17 19 - - -
09/08:30am - - - - - NE 28 33 15 18 - - -
09/08:00am - - - - - NE 26 32 14 17 - - -
09/07:30am - - - - - NE 22 28 12 15 - - -
09/07:00am - - - - - NE 24 30 13 16 - - -
09/06:30am - - - - - NE 22 28 12 15 - - -
09/06:00am - - - - - NE 26 30 14 16 - - -
09/05:30am - - - - - NE 26 30 14 16 - - -
09/05:00am - - - - - NE 28 32 15 17 - - -
09/04:30am - - - - - NE 28 32 15 17 - - -
09/04:00am - - - - - NE 28 33 15 18 - - -
09/03:30am - - - - - NE 30 35 16 19 - - -
09/03:00am - - - - - NE 32 37 17 20 - - -
09/02:30am - - - - - NE 28 33 15 18 - - -
09/02:00am - - - - - NE 26 30 14 16 - - -
09/01:30am - - - - - NE 28 32 15 17 - - -
09/01:00am - - - - - NE 28 33 15 18 - - -
09/12:30am - - - - - NE 17 24 9 13 - - -
09/12:00am - - - - - ENE 20 28 11 15 - - -
 
Date/Time
WST
Temp
°C
App
Temp
°C
Dew
Point
°C
Rel
Hum
%
Delta-T
°C
Wind Press
QNH
hPa
Press
MSL
hPa
Rain since
9am
mm
Dir  Spd
km/h
Gust
km/h
Spd
kts
Gust
kts
08/11:30pm - - - - - NE 24 28 13 15 - - -
08/11:00pm - - - - - NE 19 26 10 14 - - -
08/10:30pm - - - - - NE 11 13 6 7 - - -
08/10:00pm - - - - - E 17 19 9 10 - - -
08/09:30pm - - - - - E 17 19 9 10 - - -
08/09:00pm - - - - - E 17 19 9 10 - - -
08/08:30pm - - - - - E 17 20 9 11 - - -
08/08:00pm - - - - - E 17 19 9 10 - - -
08/07:30pm - - - - - E 15 17 8 9 - - -
08/07:00pm - - - - - E 19 22 10 12 - - -
08/06:30pm - - - - - E 24 26 13 14 - - -
08/06:00pm - - - - - E 20 24 11 13 - - -
08/05:30pm - - - - - ENE 24 28 13 15 - - -
08/05:00pm - - - - - ENE 24 32 13 17 - - -
08/04:30pm - - - - - ENE 30 33 16 18 - - -
08/04:00pm - - - - - ENE 28 32 15 17 - - -
08/03:30pm - - - - - ENE 24 30 13 16 - - -
08/03:00pm - - - - - ENE 20 26 11 14 - - -
08/02:30pm - - - - - ENE 20 26 11 14 - - -
08/02:00pm - - - - - ENE 28 32 15 17 - - -
08/01:30pm - - - - - E 20 26 11 14 - - -
08/01:00pm - - - - - ENE 20 26 11 14 - - -
08/12:30pm - - - - - ENE 26 33 14 18 - - -
08/12:00pm - - - - - NE 26 32 14 17 - - -
08/11:30am - - - - - NE 32 35 17 19 - - -
08/11:00am - - - - - NE 26 32 14 17 - - -
08/10:30am - - - - - NE 30 39 16 21 - - -
08/10:00am - - - - - NE 28 37 15 20 - - -
08/09:30am - - - - - ENE 32 37 17 20 - - -
08/09:00am - - - - - ENE 30 35 16 19 - - -
08/08:30am - - - - - ENE 32 35 17 19 - - -
08/08:00am - - - - - ENE 30 33 16 18 - - -
08/07:30am - - - - - E 26 30 14 16 - - -
08/07:00am - - - - - ENE 24 30 13 16 - - -
08/06:30am - - - - - E 26 30 14 16 - - -
08/06:00am - - - - - E 28 30 15 16 - - -
08/05:30am - - - - - E 28 28 15 15 - - -
08/05:00am - - - - - ENE 22 26 12 14 - - -
08/04:30am - - - - - ENE 20 24 11 13 - - -
08/04:00am - - - - - ENE 19 24 10 13 - - -
08/03:30am - - - - - ENE 20 24 11 13 - - -
08/03:00am - - - - - ENE 19 24 10 13 - - -
08/02:30am - - - - - ENE 19 24 10 13 - - -
08/02:00am - - - - - ENE 17 22 9 12 - - -
08/01:30am - - - - - ENE 19 20 10 11 - - -
08/01:00am - - - - - ENE 20 26 11 14 - - -
08/12:30am - - - - - ENE 28 32 15 17 - - -
08/12:00am - - - - - E 26 30 14 16 - - -
 
Date/Time
WST
Temp
°C
App
Temp
°C
Dew
Point
°C
Rel
Hum
%
Delta-T
°C
Wind Press
QNH
hPa
Press
MSL
hPa
Rain since
9am
mm
Dir  Spd
km/h
Gust
km/h
Spd
kts
Gust
kts
07/11:30pm - - - - - E 17 20 9 11 - - -
07/11:00pm - - - - - E 20 26 11 14 - - -
07/10:30pm - - - - - ESE 15 19 8 10 - - -
07/10:00pm - - - - - ESE 17 19 9 10 - - -
07/09:30pm - - - - - ESE 19 22 10 12 - - -
07/09:00pm - - - - - ESE 20 24 11 13 - - -
07/08:30pm - - - - - ESE 20 24 11 13 - - -
07/08:00pm - - - - - E 20 26 11 14 - - -
07/07:30pm - - - - - E 20 24 11 13 - - -
07/07:00pm - - - - - E 28 30 15 16 - - -
07/06:30pm - - - - - ESE 19 20 10 11 - - -

Latest Capital City Observations: Canberra | Sydney | Melbourne | Brisbane | Adelaide | Perth | Hobart | Darwin

Other formats

Comma delimited format used in spreadsheet applications
http://www.bom.gov.au/fwo/IDW60901/IDW60901.99254.axf

JavaScript Object Notation format (JSON) in row-major order
http://www.bom.gov.au/fwo/IDW60901/IDW60901.99254.json

Data quality

Most of these data are generated automatically and are frequently updated. Quality checks on data are not normally performed. It is possible for incorrect values to appear. Refer to information at About Latest Weather Observations and please check the disclaimer before using these data.